createdAt,value
2023-04-12T00:01:17.990Z,9.13
2023-04-12T00:06:36.655Z,9.31
2023-04-12T00:11:55.420Z,9
2023-04-12T00:17:14.030Z,9
2023-04-12T00:22:32.736Z,8.69
2023-04-12T00:27:50.928Z,8.44
2023-04-12T00:33:09.470Z,8.25
2023-04-12T00:38:28.208Z,8.38
2023-04-12T00:43:46.919Z,8.44
2023-04-12T00:49:05.796Z,8.38
2023-04-12T00:54:24.562Z,8.44
2023-04-12T00:59:43.307Z,8.38
2023-04-12T01:05:01.979Z,8.19
2023-04-12T01:10:20.616Z,8.13
2023-04-12T01:15:39.394Z,8.06
2023-04-12T01:20:57.697Z,8.06
2023-04-12T01:26:17.777Z,7.94
2023-04-12T01:31:36.515Z,7.87
2023-04-12T01:36:55.083Z,7.69
2023-04-12T01:42:13.305Z,7.56
2023-04-12T01:47:31.698Z,7.44
2023-04-12T01:52:50.259Z,7.31
2023-04-12T01:58:09.019Z,7.31
2023-04-12T02:03:28.878Z,7.31
2023-04-12T02:08:47.699Z,7.37
2023-04-12T02:14:06.405Z,7.37
2023-04-12T02:19:25.092Z,7.25
2023-04-12T02:24:43.469Z,7.25
2023-04-12T02:30:02.224Z,7.31
2023-04-12T02:35:21.008Z,7.19
2023-04-12T02:40:39.635Z,7.19
2023-04-12T02:45:58.416Z,7.19
2023-04-12T02:51:17.117Z,7.25
2023-04-12T02:56:35.469Z,7.25
2023-04-12T03:01:55.120Z,7.19
2023-04-12T03:07:13.892Z,7.19
2023-04-12T03:12:32.633Z,7.19
2023-04-12T03:17:50.882Z,7.25
2023-04-12T03:23:09.656Z,7.12
2023-04-12T03:28:28.320Z,7.19
2023-04-12T03:33:46.942Z,7.19
2023-04-12T03:39:05.666Z,7.19
2023-04-12T03:44:23.922Z,7.19
2023-04-12T03:49:42.830Z,7.19
2023-04-12T03:55:01.049Z,7.19
2023-04-12T04:00:19.750Z,7.19
2023-04-12T04:05:38.048Z,7.12
2023-04-12T04:10:56.765Z,7.19
2023-04-12T04:16:15.083Z,7.06
2023-04-12T04:21:33.638Z,7.06
2023-04-12T04:26:52.366Z,7
2023-04-12T04:32:11.042Z,6.94
2023-04-12T04:37:29.603Z,7.06
2023-04-12T04:42:48.256Z,7
2023-04-12T04:48:06.984Z,6.94
2023-04-12T04:53:25.171Z,6.87
2023-04-12T04:58:45.306Z,6.94
2023-04-12T05:04:04.076Z,6.87
2023-04-12T05:09:22.755Z,7
2023-04-12T05:14:47.049Z,6.94
2023-04-12T05:19:59.559Z,7.06
2023-04-12T05:25:18.080Z,7.12
2023-04-12T05:30:36.772Z,7.19
2023-04-12T05:35:55.562Z,7.25
2023-04-12T05:41:14.376Z,7.25
2023-04-12T05:46:33.114Z,7.25
2023-04-12T05:51:51.733Z,7.31
2023-04-12T05:57:11.605Z,7.31
2023-04-12T06:02:30.823Z,7.31
2023-04-12T06:07:51.572Z,7.37
2023-04-12T06:18:09.309Z,7.5
2023-04-12T06:23:28.146Z,7.62
2023-04-12T06:28:46.968Z,7.69
2023-04-12T06:34:05.568Z,7.69
2023-04-12T06:39:24.418Z,7.75
2023-04-12T06:44:43.093Z,7.81
2023-04-12T06:50:01.483Z,7.94
2023-04-12T06:55:20.224Z,8
2023-04-12T07:00:38.680Z,8
2023-04-12T07:05:57.325Z,8
2023-04-12T07:11:21.198Z,8.06
2023-04-12T07:16:34.422Z,8.19
2023-04-12T07:21:52.893Z,8.25
2023-04-12T07:27:11.216Z,8.38
2023-04-12T07:32:29.748Z,8.31
2023-04-12T07:37:48.416Z,8.5
2023-04-12T07:43:07.037Z,8.69
2023-04-12T07:48:25.417Z,8.75
2023-04-12T07:53:43.978Z,8.81
2023-04-12T07:59:02.569Z,8.88
2023-04-12T08:04:21.035Z,8.88
2023-04-12T08:09:39.820Z,8.88
2023-04-12T08:14:58.498Z,9
2023-04-12T08:20:16.908Z,9.06
2023-04-12T08:25:35.764Z,9.31
2023-04-12T08:30:54.984Z,9.69
2023-04-12T08:36:13.167Z,9.88
2023-04-12T08:41:31.927Z,10.06
2023-04-12T08:46:52.409Z,10.25
2023-04-12T08:52:08.981Z,10.38
2023-04-12T08:57:27.880Z,10.25
2023-04-12T09:02:46.574Z,10.19
2023-04-12T09:08:04.643Z,10.06
2023-04-12T09:13:23.634Z,10.25
2023-04-12T09:18:42.442Z,10.38
2023-04-12T09:24:02.255Z,10.31
2023-04-12T09:29:20.992Z,10.31
2023-04-12T09:34:39.359Z,10.56
2023-04-12T09:39:58.212Z,10.81
2023-04-12T09:45:16.858Z,10.56
2023-04-12T09:50:35.004Z,10.19
2023-04-12T09:55:53.476Z,10.25
2023-04-12T10:01:12.268Z,10.44
2023-04-12T10:06:30.940Z,10.44
2023-04-12T10:11:49.380Z,10.25
2023-04-12T10:17:08.091Z,10.13
2023-04-12T10:22:27.023Z,10.38
2023-04-12T10:27:45.762Z,10.44
2023-04-12T10:33:04.530Z,10.5
2023-04-12T10:38:22.984Z,10.63
2023-04-12T10:43:43.791Z,10.81
2023-04-12T10:49:02.264Z,10.75
2023-04-12T10:54:20.331Z,10.69
2023-04-12T10:59:47.492Z,10.69
2023-04-12T11:04:59.864Z,11.12
2023-04-12T11:10:18.360Z,11.12
2023-04-12T11:15:37.159Z,11.12
2023-04-12T11:20:55.436Z,11.5
2023-04-12T11:26:14.182Z,11.25
2023-04-12T11:31:32.703Z,11.25
2023-04-12T11:36:51.250Z,11.63
2023-04-12T11:42:10.045Z,11.81
2023-04-12T11:47:28.441Z,12.13
2023-04-12T11:52:47.446Z,12.63
2023-04-12T11:58:08.071Z,12.31
2023-04-12T12:03:27.214Z,12.5
2023-04-12T12:08:45.693Z,12.19
2023-04-12T12:14:06.375Z,12.13
2023-04-12T12:19:21.919Z,12.19
2023-04-12T12:24:43.571Z,12.31
2023-04-12T12:29:59.668Z,13.31
2023-04-12T12:35:18.341Z,13.5
2023-04-12T12:40:37.172Z,13.38
2023-04-12T12:45:55.285Z,12.25
2023-04-12T12:51:13.656Z,11.63
2023-04-12T12:56:34.422Z,11.81
2023-04-12T13:01:52.925Z,11.5
2023-04-12T13:07:11.544Z,11.38
2023-04-12T13:12:30.000Z,11.56
2023-04-12T13:17:48.698Z,12.13
2023-04-12T13:23:07.395Z,12.13
2023-04-12T13:28:25.993Z,11.81
2023-04-12T13:33:44.019Z,11.63
2023-04-12T13:39:02.584Z,11.38
2023-04-12T13:44:21.404Z,11.44
2023-04-12T13:49:40.076Z,11.19
2023-04-12T13:54:58.139Z,11.25
2023-04-12T14:00:17.542Z,11.38
2023-04-12T14:05:36.119Z,11.56
2023-04-12T14:10:54.651Z,11.5
2023-04-12T14:16:13.323Z,11.5
2023-04-12T14:21:32.920Z,11.63
2023-04-12T14:26:51.624Z,11.69
2023-04-12T14:32:10.268Z,11.69
2023-04-12T14:37:28.736Z,11.5
2023-04-12T14:42:48.210Z,11.31
2023-04-12T14:48:07.031Z,11.31
2023-04-12T14:53:25.758Z,11.31
2023-04-12T14:58:44.593Z,11.25
2023-04-12T15:04:03.677Z,11.31
2023-04-12T15:09:21.393Z,11
2023-04-12T15:14:40.948Z,11
2023-04-12T15:19:59.894Z,11.19
2023-04-12T15:25:18.204Z,11.19
2023-04-12T15:30:37.029Z,11.19
2023-04-12T15:35:55.808Z,11.44
2023-04-12T15:41:14.361Z,11.12
2023-04-12T15:46:34.044Z,11
2023-04-12T15:51:52.798Z,11.44
2023-04-12T15:57:11.629Z,12
2023-04-12T16:02:31.023Z,13.31
2023-04-12T16:07:49.736Z,13.31
2023-04-12T16:13:08.527Z,13.5
2023-04-12T16:18:26.826Z,13.5
2023-04-12T16:23:45.472Z,13.25
2023-04-12T16:29:04.093Z,13.06
2023-04-12T16:34:22.537Z,12.88
2023-04-12T16:39:40.680Z,12.75
2023-04-12T16:44:59.118Z,12.63
2023-04-12T16:50:17.682Z,12.44
2023-04-12T16:55:36.221Z,12.25
2023-04-12T17:00:54.255Z,12.19
2023-04-12T17:06:12.539Z,12.06
2023-04-12T17:11:31.226Z,12.19
2023-04-12T17:16:50.281Z,12.06
2023-04-12T17:22:08.948Z,12.13
2023-04-12T17:27:27.523Z,12
2023-04-12T17:32:46.105Z,11.75
2023-04-12T17:38:04.533Z,11.5
2023-04-12T17:43:23.017Z,11.38
2023-04-12T17:48:41.792Z,11.25
2023-04-12T17:53:59.977Z,11.19
2023-04-12T17:59:18.477Z,11.06
2023-04-12T18:04:37.367Z,11
2023-04-12T18:09:56.708Z,10.81
2023-04-12T18:15:15.319Z,10.69
2023-04-12T18:20:33.725Z,10.56
2023-04-12T18:25:52.310Z,10.56
2023-04-12T18:31:12.313Z,10.25
2023-04-12T18:36:30.583Z,10.06
2023-04-12T18:41:48.957Z,9.88
2023-04-12T18:47:07.539Z,9.63
2023-04-12T18:52:25.724Z,9.63
2023-04-12T18:57:44.003Z,9.5
2023-04-12T19:03:04.214Z,9.5
2023-04-12T19:08:22.879Z,9.5
2023-04-12T19:13:41.462Z,9.63
2023-04-12T19:19:01.413Z,9.69
2023-04-12T19:24:20.551Z,9.69
2023-04-12T19:29:39.257Z,9.75
2023-04-12T19:34:57.587Z,9.88
2023-04-12T19:40:16.317Z,9.88
2023-04-12T19:45:34.787Z,9.25
2023-04-12T19:50:53.402Z,9.19
2023-04-12T19:56:12.027Z,9.06
2023-04-12T20:01:30.822Z,8.56
2023-04-12T20:11:56.085Z,7.94
2023-04-12T20:17:14.693Z,7.81
2023-04-12T20:22:33.179Z,7.81
2023-04-12T20:27:51.912Z,7.69
2023-04-12T20:33:10.191Z,7.81
2023-04-12T20:38:28.826Z,7.5
2023-04-12T20:43:47.226Z,7.44
2023-04-12T20:49:05.844Z,7.37
2023-04-12T20:54:24.569Z,7.37
2023-04-12T20:59:43.375Z,7.25
2023-04-12T21:05:02.073Z,7.31
2023-04-12T21:10:20.434Z,7.37
2023-04-12T21:15:38.959Z,7.31
2023-04-12T21:20:58.568Z,7.25
2023-04-12T21:26:16.734Z,7.25
2023-04-12T21:31:36.587Z,7.25
2023-04-12T21:36:54.979Z,7.25
2023-04-12T21:42:13.117Z,7.12
2023-04-12T21:47:31.435Z,6.94
2023-04-12T21:52:50.064Z,6.87
2023-04-12T21:58:08.776Z,6.75
2023-04-12T22:03:27.666Z,7.06
2023-04-12T22:08:46.256Z,7.81
2023-04-12T22:14:04.610Z,8.44
2023-04-12T22:19:23.273Z,7.81
2023-04-12T22:24:42.095Z,8.19
2023-04-12T22:30:00.608Z,7.25
2023-04-12T22:40:25.907Z,7.69
2023-04-12T22:45:44.590Z,7.69
2023-04-12T22:51:03.175Z,7.5
2023-04-12T22:56:21.738Z,7.37
2023-04-12T23:01:40.087Z,7.19
2023-04-12T23:06:58.592Z,7.12
2023-04-12T23:12:17.300Z,7.19
2023-04-12T23:17:36.050Z,6.94
2023-04-12T23:22:56.469Z,6.94
2023-04-12T23:28:15.397Z,7.12
2023-04-12T23:33:33.809Z,6.87
2023-04-12T23:38:52.413Z,6.75
2023-04-12T23:44:10.967Z,6.19
2023-04-12T23:49:29.161Z,6
2023-04-12T23:54:47.740Z,6.19
